sensor_id;sensor_type;location;lat;lon;timestamp;P1;durP1;ratioP1;P2;durP2;ratioP2
39032;SDS011;24794;51.982;5.878;2023-01-16T00:00:19;5.53;;;1.50;;
39032;SDS011;24794;51.982;5.878;2023-01-16T00:01:21;7.72;;;1.35;;
39032;SDS011;24794;51.982;5.878;2023-01-16T00:02:22;4.82;;;1.33;;
39032;SDS011;24794;51.982;5.878;2023-01-16T00:03:23;3.15;;;1.30;;
39032;SDS011;24794;51.982;5.878;2023-01-16T00:04:24;3.50;;;1.10;;
39032;SDS011;24794;51.982;5.878;2023-01-16T00:05:24;4.78;;;1.30;;
39032;SDS011;24794;51.982;5.878;2023-01-16T00:06:25;4.18;;;1.20;;
39032;SDS011;24794;51.982;5.878;2023-01-16T00:07:25;4.88;;;1.02;;
39032;SDS011;24794;51.982;5.878;2023-01-16T00:08:26;4.85;;;1.00;;
39032;SDS011;24794;51.982;5.878;2023-01-16T00:09:27;7.70;;;1.40;;
39032;SDS011;24794;51.982;5.878;2023-01-16T00:10:27;3.75;;;1.30;;
39032;SDS011;24794;51.982;5.878;2023-01-16T00:11:28;6.05;;;1.40;;
39032;SDS011;24794;51.982;5.878;2023-01-16T00:12:28;6.82;;;1.35;;
39032;SDS011;24794;51.982;5.878;2023-01-16T00:13:29;3.85;;;0.90;;
39032;SDS011;24794;51.982;5.878;2023-01-16T00:14:29;6.80;;;1.35;;
39032;SDS011;24794;51.982;5.878;2023-01-16T00:15:31;4.88;;;1.00;;
39032;SDS011;24794;51.982;5.878;2023-01-16T00:16:32;4.95;;;1.33;;
39032;SDS011;24794;51.982;5.878;2023-01-16T00:17:33;5.10;;;1.17;;
39032;SDS011;24794;51.982;5.878;2023-01-16T00:18:33;3.58;;;1.25;;
39032;SDS011;24794;51.982;5.878;2023-01-16T00:19:34;6.28;;;1.73;;
39032;SDS011;24794;51.982;5.878;2023-01-16T00:20:35;2.53;;;1.30;;
39032;SDS011;24794;51.982;5.878;2023-01-16T00:21:35;2.75;;;1.17;;
39032;SDS011;24794;51.982;5.878;2023-01-16T00:22:36;8.52;;;1.40;;
39032;SDS011;24794;51.982;5.878;2023-01-16T00:23:36;5.07;;;1.20;;
39032;SDS011;24794;51.982;5.878;2023-01-16T00:24:37;3.15;;;1.20;;
39032;SDS011;24794;51.982;5.878;2023-01-16T00:25:38;3.38;;;1.50;;
39032;SDS011;24794;51.982;5.878;2023-01-16T00:26:41;6.00;;;1.83;;
39032;SDS011;24794;51.982;5.878;2023-01-16T00:27:41;3.70;;;1.52;;
39032;SDS011;24794;51.982;5.878;2023-01-16T00:28:42;6.97;;;1.67;;
39032;SDS011;24794;51.982;5.878;2023-01-16T00:29:43;6.53;;;2.38;;
39032;SDS011;24794;51.982;5.878;2023-01-16T00:30:43;5.13;;;1.73;;
39032;SDS011;24794;51.982;5.878;2023-01-16T00:31:44;4.60;;;1.70;;
39032;SDS011;24794;51.982;5.878;2023-01-16T00:32:45;5.30;;;2.08;;
39032;SDS011;24794;51.982;5.878;2023-01-16T00:33:46;8.02;;;2.10;;
39032;SDS011;24794;51.982;5.878;2023-01-16T00:34:46;4.47;;;2.63;;
39032;SDS011;24794;51.982;5.878;2023-01-16T00:35:47;8.32;;;2.45;;
39032;SDS011;24794;51.982;5.878;2023-01-16T00:36:47;5.35;;;2.00;;
39032;SDS011;24794;51.982;5.878;2023-01-16T00:37:48;4.22;;;2.20;;
39032;SDS011;24794;51.982;5.878;2023-01-16T00:38:48;4.53;;;2.65;;
39032;SDS011;24794;51.982;5.878;2023-01-16T00:39:49;3.90;;;2.60;;
39032;SDS011;24794;51.982;5.878;2023-01-16T00:40:51;6.60;;;2.60;;
39032;SDS011;24794;51.982;5.878;2023-01-16T00:41:52;6.47;;;3.22;;
39032;SDS011;24794;51.982;5.878;2023-01-16T00:42:52;4.00;;;2.80;;
39032;SDS011;24794;51.982;5.878;2023-01-16T00:43:53;4.18;;;3.03;;
39032;SDS011;24794;51.982;5.878;2023-01-16T00:44:56;5.85;;;3.78;;
39032;SDS011;24794;51.982;5.878;2023-01-16T00:45:57;4.65;;;3.20;;
39032;SDS011;24794;51.982;5.878;2023-01-16T00:46:57;4.65;;;3.38;;
39032;SDS011;24794;51.982;5.878;2023-01-16T00:47:58;8.07;;;4.25;;
39032;SDS011;24794;51.982;5.878;2023-01-16T00:48:59;7.40;;;4.00;;
39032;SDS011;24794;51.982;5.878;2023-01-16T00:49:59;6.32;;;4.35;;
39032;SDS011;24794;51.982;5.878;2023-01-16T00:51:00;7.80;;;4.60;;
39032;SDS011;24794;51.982;5.878;2023-01-16T00:52:00;6.07;;;4.60;;
39032;SDS011;24794;51.982;5.878;2023-01-16T00:53:01;5.65;;;5.07;;
39032;SDS011;24794;51.982;5.878;2023-01-16T00:54:02;7.30;;;5.30;;
39032;SDS011;24794;51.982;5.878;2023-01-16T00:55:03;6.63;;;5.40;;
39032;SDS011;24794;51.982;5.878;2023-01-16T00:56:04;9.20;;;6.32;;
39032;SDS011;24794;51.982;5.878;2023-01-16T00:57:05;7.00;;;5.50;;
39032;SDS011;24794;51.982;5.878;2023-01-16T00:58:05;9.27;;;5.88;;
39032;SDS011;24794;51.982;5.878;2023-01-16T00:59:06;7.22;;;6.03;;
39032;SDS011;24794;51.982;5.878;2023-01-16T01:00:07;7.63;;;5.80;;
39032;SDS011;24794;51.982;5.878;2023-01-16T01:01:08;9.57;;;6.97;;
39032;SDS011;24794;51.982;5.878;2023-01-16T01:02:08;7.72;;;6.50;;
39032;SDS011;24794;51.982;5.878;2023-01-16T01:03:09;9.27;;;6.22;;
39032;SDS011;24794;51.982;5.878;2023-01-16T01:04:10;7.97;;;7.10;;
39032;SDS011;24794;51.982;5.878;2023-01-16T01:05:12;8.65;;;6.97;;
39032;SDS011;24794;51.982;5.878;2023-01-16T01:06:13;7.65;;;5.95;;
39032;SDS011;24794;51.982;5.878;2023-01-16T01:07:13;9.57;;;6.60;;
39032;SDS011;24794;51.982;5.878;2023-01-16T01:08:14;6.97;;;6.13;;
39032;SDS011;24794;51.982;5.878;2023-01-16T01:09:14;8.70;;;6.55;;
39032;SDS011;24794;51.982;5.878;2023-01-16T01:10:15;9.13;;;7.43;;
39032;SDS011;24794;51.982;5.878;2023-01-16T01:11:16;9.20;;;7.40;;
39032;SDS011;24794;51.982;5.878;2023-01-16T01:12:16;7.20;;;6.10;;
39032;SDS011;24794;51.982;5.878;2023-01-16T01:13:17;7.45;;;5.65;;
39032;SDS011;24794;51.982;5.878;2023-01-16T01:14:17;6.80;;;5.80;;
39032;SDS011;24794;51.982;5.878;2023-01-16T01:15:18;8.63;;;6.40;;
39032;SDS011;24794;51.982;5.878;2023-01-16T01:16:18;8.70;;;6.90;;
39032;SDS011;24794;51.982;5.878;2023-01-16T01:17:19;8.10;;;6.18;;
39032;SDS011;24794;51.982;5.878;2023-01-16T01:18:21;11.40;;;6.60;;
39032;SDS011;24794;51.982;5.878;2023-01-16T01:19:21;7.88;;;6.13;;
39032;SDS011;24794;51.982;5.878;2023-01-16T01:20:22;7.90;;;6.13;;
39032;SDS011;24794;51.982;5.878;2023-01-16T01:21:22;7.95;;;6.15;;
39032;SDS011;24794;51.982;5.878;2023-01-16T01:22:23;9.32;;;6.78;;
39032;SDS011;24794;51.982;5.878;2023-01-16T01:23:24;9.20;;;6.22;;
39032;SDS011;24794;51.982;5.878;2023-01-16T01:24:25;7.18;;;6.45;;
39032;SDS011;24794;51.982;5.878;2023-01-16T01:25:25;7.70;;;5.97;;
39032;SDS011;24794;51.982;5.878;2023-01-16T01:26:26;10.38;;;6.90;;
39032;SDS011;24794;51.982;5.878;2023-01-16T01:27:26;7.35;;;6.35;;
39032;SDS011;24794;51.982;5.878;2023-01-16T01:28:27;8.18;;;6.22;;
39032;SDS011;24794;51.982;5.878;2023-01-16T01:29:27;9.10;;;6.78;;
39032;SDS011;24794;51.982;5.878;2023-01-16T01:30:28;9.68;;;6.65;;
39032;SDS011;24794;51.982;5.878;2023-01-16T01:31:29;8.02;;;6.32;;
39032;SDS011;24794;51.982;5.878;2023-01-16T01:32:29;7.43;;;6.53;;
39032;SDS011;24794;51.982;5.878;2023-01-16T01:33:30;7.57;;;6.47;;
39032;SDS011;24794;51.982;5.878;2023-01-16T01:34:31;10.43;;;7.20;;
39032;SDS011;24794;51.982;5.878;2023-01-16T01:35:34;7.57;;;6.43;;
39032;SDS011;24794;51.982;5.878;2023-01-16T01:36:34;6.72;;;5.97;;
39032;SDS011;24794;51.982;5.878;2023-01-16T01:37:35;9.43;;;6.25;;
39032;SDS011;24794;51.982;5.878;2023-01-16T01:38:36;7.75;;;5.95;;
39032;SDS011;24794;51.982;5.878;2023-01-16T01:39:36;6.50;;;5.57;;
39032;SDS011;24794;51.982;5.878;2023-01-16T01:40:37;10.52;;;5.47;;
39032;SDS011;24794;51.982;5.878;2023-01-16T01:41:38;6.20;;;4.43;;
39032;SDS011;24794;51.982;5.878;2023-01-16T01:42:39;8.32;;;5.20;;
39032;SDS011;24794;51.982;5.878;2023-01-16T01:43:48;8.60;;;5.25;;
39032;SDS011;24794;51.982;5.878;2023-01-16T01:44:57;8.52;;;5.95;;
39032;SDS011;24794;51.982;5.878;2023-01-16T01:46:06;5.10;;;4.45;;
39032;SDS011;24794;51.982;5.878;2023-01-16T01:47:08;5.20;;;4.53;;
39032;SDS011;24794;51.982;5.878;2023-01-16T01:49:21;7.53;;;4.85;;
39032;SDS011;24794;51.982;5.878;2023-01-16T01:50:32;6.82;;;4.22;;
39032;SDS011;24794;51.982;5.878;2023-01-16T01:51:46;8.90;;;4.78;;
39032;SDS011;24794;51.982;5.878;2023-01-16T01:52:48;10.63;;;5.38;;
39032;SDS011;24794;51.982;5.878;2023-01-16T01:53:55;7.60;;;4.75;;
39032;SDS011;24794;51.982;5.878;2023-01-16T01:55:01;7.15;;;4.20;;
39032;SDS011;24794;51.982;5.878;2023-01-16T01:56:09;8.13;;;4.72;;
39032;SDS011;24794;51.982;5.878;2023-01-16T01:57:19;6.63;;;3.90;;
39032;SDS011;24794;51.982;5.878;2023-01-16T01:58:32;5.60;;;3.47;;
39032;SDS011;24794;51.982;5.878;2023-01-16T01:59:35;4.80;;;3.53;;
39032;SDS011;24794;51.982;5.878;2023-01-16T02:00:40;4.30;;;3.28;;
39032;SDS011;24794;51.982;5.878;2023-01-16T02:01:40;9.15;;;4.10;;
39032;SDS011;24794;51.982;5.878;2023-01-16T02:02:43;8.55;;;4.30;;
39032;SDS011;24794;51.982;5.878;2023-01-16T02:03:51;7.15;;;3.70;;
39032;SDS011;24794;51.982;5.878;2023-01-16T02:04:55;6.63;;;3.58;;
39032;SDS011;24794;51.982;5.878;2023-01-16T02:05:59;13.27;;;4.10;;
39032;SDS011;24794;51.982;5.878;2023-01-16T02:07:06;8.18;;;3.38;;
39032;SDS011;24794;51.982;5.878;2023-01-16T02:08:07;8.13;;;3.60;;
39032;SDS011;24794;51.982;5.878;2023-01-16T02:09:08;13.10;;;3.55;;
39032;SDS011;24794;51.982;5.878;2023-01-16T02:10:20;7.68;;;2.83;;
39032;SDS011;24794;51.982;5.878;2023-01-16T02:11:51;12.52;;;2.80;;
39032;SDS011;24794;51.982;5.878;2023-01-16T02:12:54;14.70;;;2.80;;
39032;SDS011;24794;51.982;5.878;2023-01-16T02:13:58;10.82;;;3.00;;
39032;SDS011;24794;51.982;5.878;2023-01-16T02:15:02;5.78;;;2.13;;
39032;SDS011;24794;51.982;5.878;2023-01-16T02:16:03;6.78;;;2.10;;
39032;SDS011;24794;51.982;5.878;2023-01-16T02:17:22;7.20;;;2.13;;
39032;SDS011;24794;51.982;5.878;2023-01-16T02:18:41;7.38;;;2.40;;
39032;SDS011;24794;51.982;5.878;2023-01-16T02:23:09;8.60;;;2.13;;
39032;SDS011;24794;51.982;5.878;2023-01-16T02:24:36;6.85;;;2.03;;
39032;SDS011;24794;51.982;5.878;2023-01-16T02:30:02;6.63;;;2.30;;
39032;SDS011;24794;51.982;5.878;2023-01-16T02:32:55;3.95;;;1.90;;
39032;SDS011;24794;51.982;5.878;2023-01-16T02:37:47;6.63;;;1.73;;
39032;SDS011;24794;51.982;5.878;2023-01-16T02:43:34;12.02;;;2.22;;
39032;SDS011;24794;51.982;5.878;2023-01-16T02:44:53;6.45;;;1.98;;
39032;SDS011;24794;51.982;5.878;2023-01-16T02:46:06;5.53;;;1.40;;
39032;SDS011;24794;51.982;5.878;2023-01-16T02:48:27;5.97;;;1.30;;
39032;SDS011;24794;51.982;5.878;2023-01-16T02:49:37;5.25;;;1.25;;
39032;SDS011;24794;51.982;5.878;2023-01-16T02:51:13;5.45;;;1.30;;
39032;SDS011;24794;51.982;5.878;2023-01-16T02:52:46;3.33;;;1.00;;
39032;SDS011;24794;51.982;5.878;2023-01-16T02:53:59;3.65;;;1.13;;
39032;SDS011;24794;51.982;5.878;2023-01-16T02:55:12;6.22;;;1.10;;
39032;SDS011;24794;51.982;5.878;2023-01-16T02:56:34;4.82;;;1.20;;
39032;SDS011;24794;51.982;5.878;2023-01-16T02:57:47;5.22;;;0.88;;
39032;SDS011;24794;51.982;5.878;2023-01-16T02:58:53;4.18;;;1.20;;
39032;SDS011;24794;51.982;5.878;2023-01-16T02:59:54;4.07;;;1.23;;
39032;SDS011;24794;51.982;5.878;2023-01-16T03:00:57;5.38;;;1.33;;
39032;SDS011;24794;51.982;5.878;2023-01-16T03:02:00;6.25;;;1.08;;
39032;SDS011;24794;51.982;5.878;2023-01-16T03:03:01;5.68;;;1.10;;
39032;SDS011;24794;51.982;5.878;2023-01-16T03:04:04;3.22;;;0.90;;
39032;SDS011;24794;51.982;5.878;2023-01-16T03:05:06;4.32;;;1.08;;
39032;SDS011;24794;51.982;5.878;2023-01-16T03:06:13;3.35;;;0.90;;
39032;SDS011;24794;51.982;5.878;2023-01-16T03:11:52;3.10;;;0.70;;
39032;SDS011;24794;51.982;5.878;2023-01-16T03:15:59;4.95;;;0.90;;
39032;SDS011;24794;51.982;5.878;2023-01-16T03:19:42;2.90;;;0.95;;
39032;SDS011;24794;51.982;5.878;2023-01-16T03:22:41;4.38;;;1.05;;
39032;SDS011;24794;51.982;5.878;2023-01-16T03:23:52;3.03;;;0.70;;
39032;SDS011;24794;51.982;5.878;2023-01-16T03:26:30;5.30;;;0.88;;
39032;SDS011;24794;51.982;5.878;2023-01-16T03:27:42;4.35;;;1.05;;
39032;SDS011;24794;51.982;5.878;2023-01-16T03:31:09;4.88;;;1.10;;
39032;SDS011;24794;51.982;5.878;2023-01-16T03:36:32;6.72;;;1.23;;
39032;SDS011;24794;51.982;5.878;2023-01-16T03:37:37;6.00;;;0.90;;
39032;SDS011;24794;51.982;5.878;2023-01-16T03:38:43;3.22;;;0.77;;
39032;SDS011;24794;51.982;5.878;2023-01-16T03:39:48;4.93;;;1.05;;
39032;SDS011;24794;51.982;5.878;2023-01-16T03:40:53;8.07;;;1.08;;
39032;SDS011;24794;51.982;5.878;2023-01-16T03:41:58;6.20;;;1.15;;
39032;SDS011;24794;51.982;5.878;2023-01-16T03:43:07;3.28;;;0.93;;
39032;SDS011;24794;51.982;5.878;2023-01-16T03:44:19;4.20;;;0.82;;
39032;SDS011;24794;51.982;5.878;2023-01-16T03:45:27;4.65;;;1.00;;
39032;SDS011;24794;51.982;5.878;2023-01-16T03:46:43;6.70;;;0.80;;
39032;SDS011;24794;51.982;5.878;2023-01-16T03:47:52;4.53;;;1.05;;
39032;SDS011;24794;51.982;5.878;2023-01-16T03:49:02;7.32;;;0.98;;
39032;SDS011;24794;51.982;5.878;2023-01-16T03:50:08;4.50;;;1.00;;
39032;SDS011;24794;51.982;5.878;2023-01-16T03:51:12;4.72;;;1.10;;
39032;SDS011;24794;51.982;5.878;2023-01-16T03:52:18;4.40;;;0.82;;
39032;SDS011;24794;51.982;5.878;2023-01-16T03:53:25;3.50;;;0.93;;
39032;SDS011;24794;51.982;5.878;2023-01-16T03:54:45;2.65;;;0.80;;
39032;SDS011;24794;51.982;5.878;2023-01-16T03:55:52;4.15;;;0.82;;
39032;SDS011;24794;51.982;5.878;2023-01-16T03:57:13;3.67;;;1.10;;
39032;SDS011;24794;51.982;5.878;2023-01-16T03:58:18;2.30;;;0.70;;
39032;SDS011;24794;51.982;5.878;2023-01-16T03:59:31;2.28;;;0.63;;
39032;SDS011;24794;51.982;5.878;2023-01-16T04:00:35;4.57;;;0.90;;
39032;SDS011;24794;51.982;5.878;2023-01-16T04:01:50;4.82;;;1.00;;
39032;SDS011;24794;51.982;5.878;2023-01-16T04:02:56;1.25;;;0.60;;
39032;SDS011;24794;51.982;5.878;2023-01-16T04:05:29;5.88;;;1.00;;
39032;SDS011;24794;51.982;5.878;2023-01-16T04:08:03;5.32;;;0.77;;
39032;SDS011;24794;51.982;5.878;2023-01-16T04:09:12;7.25;;;1.10;;
39032;SDS011;24794;51.982;5.878;2023-01-16T04:10:18;2.97;;;0.65;;
39032;SDS011;24794;51.982;5.878;2023-01-16T04:11:22;3.05;;;0.80;;
39032;SDS011;24794;51.982;5.878;2023-01-16T04:12:28;2.60;;;0.88;;
39032;SDS011;24794;51.982;5.878;2023-01-16T04:13:36;3.63;;;0.93;;
39032;SDS011;24794;51.982;5.878;2023-01-16T04:14:38;5.60;;;0.90;;
39032;SDS011;24794;51.982;5.878;2023-01-16T04:15:42;4.00;;;0.93;;
39032;SDS011;24794;51.982;5.878;2023-01-16T04:16:46;3.65;;;0.60;;
39032;SDS011;24794;51.982;5.878;2023-01-16T04:17:47;3.13;;;0.68;;
39032;SDS011;24794;51.982;5.878;2023-01-16T04:18:49;4.93;;;0.80;;
39032;SDS011;24794;51.982;5.878;2023-01-16T04:19:53;7.15;;;1.08;;
39032;SDS011;24794;51.982;5.878;2023-01-16T04:20:53;5.15;;;0.60;;
39032;SDS011;24794;51.982;5.878;2023-01-16T04:21:54;4.25;;;0.90;;
39032;SDS011;24794;51.982;5.878;2023-01-16T04:22:55;2.85;;;0.57;;
39032;SDS011;24794;51.982;5.878;2023-01-16T04:23:56;3.13;;;1.15;;
39032;SDS011;24794;51.982;5.878;2023-01-16T04:25:00;3.97;;;1.10;;
39032;SDS011;24794;51.982;5.878;2023-01-16T04:26:03;3.60;;;0.80;;
39032;SDS011;24794;51.982;5.878;2023-01-16T04:27:04;2.75;;;0.80;;
39032;SDS011;24794;51.982;5.878;2023-01-16T04:28:05;4.63;;;0.90;;
39032;SDS011;24794;51.982;5.878;2023-01-16T04:29:06;5.88;;;1.10;;
39032;SDS011;24794;51.982;5.878;2023-01-16T04:30:06;4.55;;;1.00;;
39032;SDS011;24794;51.982;5.878;2023-01-16T04:31:07;3.70;;;0.70;;
39032;SDS011;24794;51.982;5.878;2023-01-16T04:32:08;4.43;;;1.05;;
39032;SDS011;24794;51.982;5.878;2023-01-16T04:33:09;3.50;;;0.82;;
39032;SDS011;24794;51.982;5.878;2023-01-16T04:34:09;5.97;;;1.08;;
39032;SDS011;24794;51.982;5.878;2023-01-16T04:35:10;4.18;;;1.10;;
39032;SDS011;24794;51.982;5.878;2023-01-16T04:36:11;4.63;;;0.98;;
39032;SDS011;24794;51.982;5.878;2023-01-16T04:37:12;3.78;;;0.80;;
39032;SDS011;24794;51.982;5.878;2023-01-16T04:38:16;4.47;;;1.10;;
39032;SDS011;24794;51.982;5.878;2023-01-16T04:39:17;5.65;;;1.27;;
39032;SDS011;24794;51.982;5.878;2023-01-16T04:40:18;4.72;;;1.00;;
39032;SDS011;24794;51.982;5.878;2023-01-16T04:41:18;4.07;;;1.02;;
39032;SDS011;24794;51.982;5.878;2023-01-16T04:42:37;6.18;;;1.02;;
39032;SDS011;24794;51.982;5.878;2023-01-16T04:43:38;3.53;;;1.05;;
39032;SDS011;24794;51.982;5.878;2023-01-16T04:44:39;2.58;;;0.95;;
39032;SDS011;24794;51.982;5.878;2023-01-16T04:45:39;4.28;;;0.90;;
39032;SDS011;24794;51.982;5.878;2023-01-16T04:46:40;5.82;;;1.10;;
39032;SDS011;24794;51.982;5.878;2023-01-16T04:47:44;3.97;;;1.13;;
39032;SDS011;24794;51.982;5.878;2023-01-16T04:48:46;3.45;;;1.10;;
39032;SDS011;24794;51.982;5.878;2023-01-16T04:49:47;5.13;;;1.10;;
39032;SDS011;24794;51.982;5.878;2023-01-16T04:50:48;4.97;;;0.82;;
39032;SDS011;24794;51.982;5.878;2023-01-16T04:51:49;4.78;;;0.90;;
39032;SDS011;24794;51.982;5.878;2023-01-16T04:52:50;6.85;;;1.33;;
39032;SDS011;24794;51.982;5.878;2023-01-16T04:53:51;4.72;;;1.08;;
39032;SDS011;24794;51.982;5.878;2023-01-16T04:54:52;4.78;;;0.88;;
39032;SDS011;24794;51.982;5.878;2023-01-16T04:55:52;5.28;;;0.93;;
39032;SDS011;24794;51.982;5.878;2023-01-16T04:56:53;4.63;;;1.10;;
39032;SDS011;24794;51.982;5.878;2023-01-16T04:57:53;5.88;;;1.13;;
39032;SDS011;24794;51.982;5.878;2023-01-16T04:58:54;3.40;;;0.95;;
39032;SDS011;24794;51.982;5.878;2023-01-16T04:59:55;2.88;;;1.00;;
39032;SDS011;24794;51.982;5.878;2023-01-16T05:00:56;6.15;;;1.13;;
39032;SDS011;24794;51.982;5.878;2023-01-16T05:01:56;5.10;;;0.90;;
39032;SDS011;24794;51.982;5.878;2023-01-16T05:02:57;7.45;;;1.10;;
39032;SDS011;24794;51.982;5.878;2023-01-16T05:03:58;2.58;;;0.98;;
39032;SDS011;24794;51.982;5.878;2023-01-16T05:04:59;1.95;;;0.52;;
39032;SDS011;24794;51.982;5.878;2023-01-16T05:05:59;1.70;;;0.60;;
39032;SDS011;24794;51.982;5.878;2023-01-16T05:07:00;4.10;;;0.88;;
39032;SDS011;24794;51.982;5.878;2023-01-16T05:08:00;4.15;;;0.85;;
39032;SDS011;24794;51.982;5.878;2023-01-16T05:09:16;3.90;;;1.08;;
39032;SDS011;24794;51.982;5.878;2023-01-16T05:10:17;3.33;;;0.80;;
39032;SDS011;24794;51.982;5.878;2023-01-16T05:11:17;6.70;;;1.42;;
39032;SDS011;24794;51.982;5.878;2023-01-16T05:12:18;3.17;;;0.80;;
39032;SDS011;24794;51.982;5.878;2023-01-16T05:13:20;5.68;;;1.00;;
39032;SDS011;24794;51.982;5.878;2023-01-16T05:14:21;3.55;;;0.90;;
39032;SDS011;24794;51.982;5.878;2023-01-16T05:15:21;3.85;;;1.08;;
39032;SDS011;24794;51.982;5.878;2023-01-16T05:16:22;5.05;;;1.10;;
39032;SDS011;24794;51.982;5.878;2023-01-16T05:17:23;4.88;;;1.10;;
39032;SDS011;24794;51.982;5.878;2023-01-16T05:18:25;4.32;;;1.05;;
39032;SDS011;24794;51.982;5.878;2023-01-16T05:19:26;8.00;;;1.52;;
39032;SDS011;24794;51.982;5.878;2023-01-16T05:20:26;5.43;;;1.38;;
39032;SDS011;24794;51.982;5.878;2023-01-16T05:21:27;5.93;;;1.30;;
39032;SDS011;24794;51.982;5.878;2023-01-16T05:22:27;5.97;;;1.35;;
39032;SDS011;24794;51.982;5.878;2023-01-16T05:23:28;4.38;;;1.35;;
39032;SDS011;24794;51.982;5.878;2023-01-16T05:24:29;8.20;;;1.83;;
39032;SDS011;24794;51.982;5.878;2023-01-16T05:25:29;4.65;;;1.40;;
39032;SDS011;24794;51.982;5.878;2023-01-16T05:26:30;4.75;;;1.40;;
39032;SDS011;24794;51.982;5.878;2023-01-16T05:27:30;4.18;;;1.40;;
39032;SDS011;24794;51.982;5.878;2023-01-16T05:28:31;6.43;;;1.40;;
39032;SDS011;24794;51.982;5.878;2023-01-16T05:29:33;7.05;;;1.40;;
39032;SDS011;24794;51.982;5.878;2023-01-16T05:30:34;2.22;;;0.90;;
39032;SDS011;24794;51.982;5.878;2023-01-16T05:31:35;5.93;;;1.45;;
39032;SDS011;24794;51.982;5.878;2023-01-16T05:32:35;5.18;;;1.80;;
39032;SDS011;24794;51.982;5.878;2023-01-16T05:33:36;4.40;;;1.35;;
39032;SDS011;24794;51.982;5.878;2023-01-16T05:34:36;3.95;;;1.50;;
39032;SDS011;24794;51.982;5.878;2023-01-16T05:35:37;4.07;;;1.25;;
39032;SDS011;24794;51.982;5.878;2023-01-16T05:36:37;5.68;;;1.40;;
39032;SDS011;24794;51.982;5.878;2023-01-16T05:37:38;8.65;;;1.52;;
39032;SDS011;24794;51.982;5.878;2023-01-16T05:38:39;4.70;;;1.20;;
39032;SDS011;24794;51.982;5.878;2023-01-16T05:39:39;4.47;;;1.55;;
39032;SDS011;24794;51.982;5.878;2023-01-16T05:40:40;5.47;;;1.50;;
39032;SDS011;24794;51.982;5.878;2023-01-16T05:41:41;4.40;;;1.35;;
39032;SDS011;24794;51.982;5.878;2023-01-16T05:42:42;5.07;;;1.58;;
39032;SDS011;24794;51.982;5.878;2023-01-16T05:43:43;4.13;;;1.50;;
39032;SDS011;24794;51.982;5.878;2023-01-16T05:44:43;5.65;;;1.50;;
39032;SDS011;24794;51.982;5.878;2023-01-16T05:45:44;4.43;;;1.38;;
39032;SDS011;24794;51.982;5.878;2023-01-16T05:46:45;6.90;;;1.50;;
39032;SDS011;24794;51.982;5.878;2023-01-16T05:47:45;3.70;;;1.55;;
39032;SDS011;24794;51.982;5.878;2023-01-16T05:48:46;3.72;;;1.70;;
39032;SDS011;24794;51.982;5.878;2023-01-16T05:49:47;4.30;;;1.63;;
39032;SDS011;24794;51.982;5.878;2023-01-16T05:50:47;3.97;;;1.63;;
39032;SDS011;24794;51.982;5.878;2023-01-16T05:51:48;6.22;;;2.03;;
39032;SDS011;24794;51.982;5.878;2023-01-16T05:52:49;7.00;;;1.92;;
39032;SDS011;24794;51.982;5.878;2023-01-16T05:53:50;5.18;;;1.75;;
39032;SDS011;24794;51.982;5.878;2023-01-16T05:54:51;5.85;;;1.70;;
39032;SDS011;24794;51.982;5.878;2023-01-16T05:55:52;7.85;;;1.95;;
39032;SDS011;24794;51.982;5.878;2023-01-16T05:56:53;3.63;;;1.45;;
39032;SDS011;24794;51.982;5.878;2023-01-16T05:57:53;6.18;;;1.52;;
39032;SDS011;24794;51.982;5.878;2023-01-16T05:58:54;5.57;;;1.75;;
39032;SDS011;24794;51.982;5.878;2023-01-16T05:59:57;5.40;;;1.60;;
39032;SDS011;24794;51.982;5.878;2023-01-16T06:00:58;7.03;;;1.60;;
39032;SDS011;24794;51.982;5.878;2023-01-16T06:01:58;6.35;;;1.70;;
39032;SDS011;24794;51.982;5.878;2023-01-16T06:02:59;3.28;;;1.27;;
39032;SDS011;24794;51.982;5.878;2023-01-16T06:04:00;6.63;;;1.48;;
39032;SDS011;24794;51.982;5.878;2023-01-16T06:05:00;3.92;;;1.20;;
39032;SDS011;24794;51.982;5.878;2023-01-16T06:07:02;4.57;;;1.50;;
39032;SDS011;24794;51.982;5.878;2023-01-16T06:08:03;3.50;;;1.40;;
39032;SDS011;24794;51.982;5.878;2023-01-16T06:09:04;6.30;;;1.60;;
39032;SDS011;24794;51.982;5.878;2023-01-16T06:10:05;4.00;;;1.55;;
39032;SDS011;24794;51.982;5.878;2023-01-16T06:11:06;4.43;;;1.20;;
39032;SDS011;24794;51.982;5.878;2023-01-16T06:12:07;7.85;;;1.30;;
39032;SDS011;24794;51.982;5.878;2023-01-16T06:13:07;5.75;;;1.42;;
39032;SDS011;24794;51.982;5.878;2023-01-16T06:14:08;5.55;;;1.10;;
39032;SDS011;24794;51.982;5.878;2023-01-16T06:15:09;6.65;;;1.10;;
39032;SDS011;24794;51.982;5.878;2023-01-16T06:16:09;4.43;;;1.20;;
39032;SDS011;24794;51.982;5.878;2023-01-16T06:17:10;4.55;;;1.08;;
39032;SDS011;24794;51.982;5.878;2023-01-16T06:18:14;5.55;;;1.25;;
39032;SDS011;24794;51.982;5.878;2023-01-16T06:19:14;6.28;;;1.10;;
39032;SDS011;24794;51.982;5.878;2023-01-16T06:20:15;4.78;;;1.20;;
39032;SDS011;24794;51.982;5.878;2023-01-16T06:21:16;3.92;;;0.80;;
39032;SDS011;24794;51.982;5.878;2023-01-16T06:22:16;3.47;;;1.08;;
39032;SDS011;24794;51.982;5.878;2023-01-16T06:23:17;4.95;;;1.10;;
39032;SDS011;24794;51.982;5.878;2023-01-16T06:24:18;1.90;;;0.80;;
39032;SDS011;24794;51.982;5.878;2023-01-16T06:25:18;3.25;;;0.90;;
39032;SDS011;24794;51.982;5.878;2023-01-16T06:26:19;3.08;;;1.00;;
39032;SDS011;24794;51.982;5.878;2023-01-16T06:27:20;5.22;;;1.10;;
39032;SDS011;24794;51.982;5.878;2023-01-16T06:28:20;3.80;;;0.93;;
39032;SDS011;24794;51.982;5.878;2023-01-16T06:29:21;4.13;;;1.17;;
39032;SDS011;24794;51.982;5.878;2023-01-16T06:30:21;3.83;;;1.20;;
39032;SDS011;24794;51.982;5.878;2023-01-16T06:31:22;6.55;;;1.38;;
39032;SDS011;24794;51.982;5.878;2023-01-16T06:32:23;3.83;;;1.10;;
39032;SDS011;24794;51.982;5.878;2023-01-16T06:33:24;5.28;;;1.15;;
39032;SDS011;24794;51.982;5.878;2023-01-16T06:34:24;3.17;;;0.93;;
39032;SDS011;24794;51.982;5.878;2023-01-16T06:35:25;4.78;;;1.05;;
39032;SDS011;24794;51.982;5.878;2023-01-16T06:36:26;3.63;;;1.00;;
39032;SDS011;24794;51.982;5.878;2023-01-16T06:37:27;5.82;;;1.00;;
39032;SDS011;24794;51.982;5.878;2023-01-16T06:38:28;2.78;;;0.90;;
39032;SDS011;24794;51.982;5.878;2023-01-16T06:39:28;4.03;;;1.20;;
39032;SDS011;24794;51.982;5.878;2023-01-16T06:40:29;4.38;;;0.90;;
39032;SDS011;24794;51.982;5.878;2023-01-16T06:41:29;5.40;;;1.05;;
39032;SDS011;24794;51.982;5.878;2023-01-16T06:42:30;3.42;;;0.98;;
39032;SDS011;24794;51.982;5.878;2023-01-16T06:43:31;5.20;;;1.23;;
39032;SDS011;24794;51.982;5.878;2023-01-16T06:44:32;8.35;;;0.80;;
39032;SDS011;24794;51.982;5.878;2023-01-16T06:45:33;2.20;;;0.73;;
39032;SDS011;24794;51.982;5.878;2023-01-16T06:46:34;3.50;;;0.85;;
39032;SDS011;24794;51.982;5.878;2023-01-16T06:47:35;2.67;;;1.00;;
39032;SDS011;24794;51.982;5.878;2023-01-16T06:48:36;2.47;;;0.90;;
39032;SDS011;24794;51.982;5.878;2023-01-16T06:49:36;4.13;;;0.80;;
39032;SDS011;24794;51.982;5.878;2023-01-16T06:50:37;2.75;;;0.77;;
39032;SDS011;24794;51.982;5.878;2023-01-16T06:51:38;2.63;;;0.88;;
39032;SDS011;24794;51.982;5.878;2023-01-16T06:52:38;3.25;;;0.60;;
39032;SDS011;24794;51.982;5.878;2023-01-16T06:53:39;3.67;;;0.88;;
39032;SDS011;24794;51.982;5.878;2023-01-16T06:54:40;3.83;;;0.90;;
39032;SDS011;24794;51.982;5.878;2023-01-16T06:55:41;4.18;;;0.90;;
39032;SDS011;24794;51.982;5.878;2023-01-16T06:56:41;4.47;;;1.00;;
39032;SDS011;24794;51.982;5.878;2023-01-16T06:57:42;3.90;;;0.93;;
39032;SDS011;24794;51.982;5.878;2023-01-16T06:58:43;3.90;;;1.10;;
39032;SDS011;24794;51.982;5.878;2023-01-16T06:59:44;4.53;;;0.80;;
39032;SDS011;24794;51.982;5.878;2023-01-16T07:00:45;4.22;;;0.90;;
39032;SDS011;24794;51.982;5.878;2023-01-16T07:01:50;6.05;;;1.00;;
39032;SDS011;24794;51.982;5.878;2023-01-16T07:02:52;4.25;;;1.10;;
39032;SDS011;24794;51.982;5.878;2023-01-16T07:03:57;4.82;;;0.80;;